createdAt,value
2023-03-03T00:00:36.725Z,31.83
2023-03-03T00:05:39.458Z,29.30
2023-03-03T00:10:42.296Z,29.35
2023-03-03T00:15:46.744Z,31.50
2023-03-03T00:20:53.326Z,27.42
2023-03-03T00:25:56.176Z,26.60
2023-03-03T00:31:01.891Z,31.48
2023-03-03T00:36:28.885Z,30.67
2023-03-03T00:41:31.628Z,25.77
2023-03-03T00:46:38.209Z,27.90
2023-03-03T00:51:41.074Z,28.70
2023-03-03T00:56:43.898Z,28.40
2023-03-03T01:01:48.403Z,22.42
2023-03-03T01:06:51.233Z,26.35
2023-03-03T01:11:54.105Z,31.75
2023-03-03T01:16:59.293Z,25.85
2023-03-03T01:22:02.066Z,25.05
2023-03-03T01:27:04.873Z,28.80
2023-03-03T01:32:09.039Z,31.30
2023-03-03T01:37:11.739Z,34.80
2023-03-03T01:42:15.767Z,29.33
2023-03-03T01:47:23.344Z,28.52
2023-03-03T01:52:31.334Z,28.50
2023-03-03T01:57:38.004Z,29.92
2023-03-03T02:02:44.030Z,34.08
2023-03-03T02:07:47.030Z,38.78
2023-03-03T02:12:52.580Z,39.08
2023-03-03T02:17:58.560Z,46.90
2023-03-03T02:23:08.781Z,45.25
2023-03-03T02:28:12.960Z,46.28
2023-03-03T02:33:15.915Z,50.97
2023-03-03T02:38:24.184Z,65.90
2023-03-03T02:43:35.735Z,61.55
2023-03-03T02:48:38.617Z,58.90
2023-03-03T02:53:41.658Z,59.97
2023-03-03T02:58:45.800Z,60.45
2023-03-03T03:03:48.881Z,58.83
2023-03-03T03:08:55.509Z,58.40
2023-03-03T03:13:59.881Z,56.22
2023-03-03T03:19:03.702Z,52.38
2023-03-03T03:24:07.642Z,59.50
2023-03-03T03:29:13.679Z,58.15
2023-03-03T03:34:16.475Z,71.00
2023-03-03T03:39:20.648Z,66.65
2023-03-03T03:44:27.815Z,82.55
2023-03-03T03:49:30.959Z,84.18
2023-03-03T03:54:34.701Z,88.95
2023-03-03T03:59:39.125Z,80.10
2023-03-03T04:04:42.428Z,73.88
2023-03-03T04:09:45.375Z,85.95
2023-03-03T04:14:50.264Z,93.20
2023-03-03T04:19:54.061Z,87.18
2023-03-03T04:24:57.476Z,79.50
2023-03-03T04:30:03.138Z,71.07
2023-03-03T04:35:08.457Z,82.05
2023-03-03T04:40:13.698Z,80.22
2023-03-03T04:45:20.175Z,74.90
2023-03-03T04:50:23.448Z,82.53
2023-03-03T04:55:26.664Z,79.40
2023-03-03T05:00:30.998Z,79.88
2023-03-03T05:05:35.049Z,80.28
2023-03-03T05:10:37.801Z,78.97
2023-03-03T05:15:43.267Z,87.55
2023-03-03T05:20:46.281Z,87.07
2023-03-03T05:25:49.593Z,92.13
2023-03-03T05:30:53.774Z,89.10
2023-03-03T05:35:57.192Z,95.63
2023-03-03T05:40:59.951Z,88.20
2023-03-03T05:46:04.831Z,85.63
2023-03-03T05:51:07.591Z,81.72
2023-03-03T05:56:10.339Z,85.90
2023-03-03T06:01:14.491Z,79.85
2023-03-03T06:06:19.341Z,82.57
2023-03-03T06:11:22.160Z,89.45
2023-03-03T06:16:26.506Z,89.85
2023-03-03T06:21:29.331Z,101.72
2023-03-03T06:26:32.403Z,98.07
2023-03-03T06:31:36.735Z,100.95
2023-03-03T06:36:39.537Z,91.72
2023-03-03T06:41:42.335Z,89.15
2023-03-03T06:46:46.470Z,93.05
2023-03-03T06:51:49.378Z,97.07
2023-03-03T06:57:01.658Z,105.13
2023-03-03T07:02:15.447Z,103.95
2023-03-03T07:07:21.288Z,116.20
2023-03-03T07:12:27.417Z,110.70
2023-03-03T07:17:32.432Z,90.45
2023-03-03T07:22:35.406Z,92.03
2023-03-03T07:27:38.390Z,105.43
2023-03-03T07:32:46.074Z,90.22
2023-03-03T07:37:49.159Z,49.80
2023-03-03T07:42:52.664Z,59.10
2023-03-03T07:48:16.854Z,68.35
2023-03-03T07:53:27.279Z,74.80
2023-03-03T07:58:38.710Z,88.50
2023-03-03T08:03:45.556Z,80.47
2023-03-03T08:08:48.317Z,74.07
2023-03-03T08:13:51.072Z,66.63
2023-03-03T08:18:55.238Z,68.13
2023-03-03T08:23:58.039Z,79.78
2023-03-03T08:29:01.258Z,76.38
2023-03-03T08:34:05.470Z,69.53
2023-03-03T08:39:09.321Z,66.20
2023-03-03T08:44:12.570Z,81.78
2023-03-03T08:49:17.013Z,78.85
2023-03-03T08:54:19.862Z,70.40
2023-03-03T08:59:23.126Z,76.45
2023-03-03T09:04:27.527Z,76.30
2023-03-03T09:09:30.517Z,77.15
2023-03-03T09:14:33.256Z,75.13
2023-03-03T09:19:38.406Z,71.55
2023-03-03T09:24:43.714Z,70.18
2023-03-03T09:29:46.522Z,66.63
2023-03-03T09:34:50.803Z,68.57
2023-03-03T09:39:55.341Z,76.43
2023-03-03T09:45:18.683Z,79.28
2023-03-03T09:50:33.835Z,67.22
2023-03-03T09:55:45.545Z,76.82
2023-03-03T10:01:00.464Z,75.50
2023-03-03T10:06:12.348Z,64.03
2023-03-03T10:11:23.063Z,72.57
2023-03-03T10:16:43.325Z,67.90
2023-03-03T10:21:52.237Z,71.43
2023-03-03T10:27:17.479Z,65.60
2023-03-03T10:32:45.576Z,64.90
2023-03-03T10:38:05.393Z,57.55
2023-03-03T10:43:32.662Z,69.13
2023-03-03T10:49:02.227Z,71.60
2023-03-03T10:54:24.194Z,78.18
2023-03-03T10:59:43.220Z,76.47
2023-03-03T11:05:16.916Z,67.75
2023-03-03T11:10:30.071Z,65.82
2023-03-03T11:15:59.785Z,70.10
2023-03-03T11:21:11.800Z,66.75
2023-03-03T11:26:28.127Z,73.57
2023-03-03T11:31:39.391Z,67.78
2023-03-03T11:36:47.090Z,72.40
2023-03-03T11:42:03.147Z,70.38
2023-03-03T11:47:11.338Z,63.70
2023-03-03T11:52:25.404Z,55.35
2023-03-03T11:57:34.308Z,55.30
2023-03-03T12:03:19.009Z,55.17
2023-03-03T12:08:37.258Z,59.30
2023-03-03T12:13:53.963Z,50.75
2023-03-03T12:19:11.270Z,52.28
2023-03-03T12:24:32.098Z,53.05
2023-03-03T12:29:46.775Z,56.97
2023-03-03T12:34:56.416Z,50.85
2023-03-03T12:40:08.390Z,54.67
2023-03-03T12:45:29.176Z,49.90
2023-03-03T12:50:43.007Z,53.65
2023-03-03T12:55:52.995Z,63.97
2023-03-03T13:01:08.313Z,45.40
2023-03-03T13:06:24.258Z,44.55
2023-03-03T13:11:54.014Z,44.63
2023-03-03T13:17:09.461Z,45.70
2023-03-03T13:22:17.087Z,42.38
2023-03-03T13:27:24.186Z,43.40
2023-03-03T13:32:37.370Z,39.30
2023-03-03T13:37:44.141Z,38.80
2023-03-03T13:42:51.672Z,32.17
2023-03-03T13:48:03.114Z,32.28
2023-03-03T13:53:29.369Z,35.30
2023-03-03T13:58:39.193Z,30.48
2023-03-03T14:03:59.469Z,30.25
2023-03-03T14:09:15.241Z,28.10
2023-03-03T14:14:32.364Z,27.73
2023-03-03T14:19:44.460Z,23.58
2023-03-03T14:25:12.205Z,25.50
2023-03-03T14:30:33.837Z,24.35
2023-03-03T14:35:40.296Z,25.33
2023-03-03T14:40:45.403Z,27.38
2023-03-03T14:45:48.416Z,25.75
2023-03-03T14:50:54.662Z,23.85
2023-03-03T14:56:16.748Z,24.88
2023-03-03T15:01:25.371Z,24.33
2023-03-03T15:06:37.067Z,34.05
2023-03-03T15:11:39.979Z,25.92
2023-03-03T15:16:44.915Z,30.60
2023-03-03T15:22:00.538Z,31.73
2023-03-03T15:27:07.286Z,36.45
2023-03-03T15:32:18.617Z,36.80
2023-03-03T15:37:39.518Z,36.88
2023-03-03T15:42:49.804Z,33.65
2023-03-03T15:48:10.413Z,35.10
2023-03-03T15:53:29.319Z,32.47
2023-03-03T15:58:54.991Z,34.20
2023-03-03T16:04:01.709Z,35.97
2023-03-03T16:09:23.204Z,37.30
2023-03-03T16:14:47.405Z,35.28
2023-03-03T16:20:10.150Z,38.05
2023-03-03T16:25:32.500Z,35.38
2023-03-03T16:30:44.247Z,38.35
2023-03-03T16:35:56.841Z,37.67
2023-03-03T16:46:12.537Z,34.05
2023-03-03T16:51:36.914Z,38.90
2023-03-03T16:56:45.126Z,45.60
2023-03-03T17:01:55.839Z,42.75
2023-03-03T17:07:04.083Z,41.70
2023-03-03T17:12:33.211Z,43.72
2023-03-03T17:17:43.961Z,44.55
2023-03-03T17:22:59.885Z,45.22
2023-03-03T17:28:19.645Z,43.22
2023-03-03T17:33:37.797Z,49.80
2023-03-03T17:38:56.565Z,48.40
2023-03-03T17:44:07.334Z,60.33
2023-03-03T17:49:42.441Z,52.83
2023-03-03T17:55:25.861Z,64.05
2023-03-03T18:00:38.671Z,58.17
2023-03-03T18:05:52.236Z,61.83
2023-03-03T18:11:18.970Z,54.97
2023-03-03T18:16:36.586Z,55.53
2023-03-03T18:21:45.167Z,56.83
2023-03-03T18:26:50.390Z,58.38
2023-03-03T18:32:19.800Z,53.90
2023-03-03T18:37:42.767Z,54.65
2023-03-03T18:42:49.823Z,51.55
2023-03-03T18:48:06.073Z,56.58
2023-03-03T18:53:19.766Z,48.83
2023-03-03T18:58:38.773Z,56.83
2023-03-03T19:04:01.945Z,48.35
2023-03-03T19:09:06.330Z,50.40
2023-03-03T19:14:35.187Z,48.20
2023-03-03T19:20:02.919Z,46.35
2023-03-03T19:25:17.018Z,45.08
2023-03-03T19:30:41.111Z,48.70
2023-03-03T19:35:58.652Z,44.80
2023-03-03T19:41:13.770Z,46.28
2023-03-03T19:46:30.909Z,47.45
2023-03-03T19:51:41.648Z,44.65
2023-03-03T19:56:49.244Z,41.20
2023-03-03T20:02:03.791Z,46.33
2023-03-03T20:07:16.998Z,42.22
2023-03-03T20:12:31.292Z,49.88
2023-03-03T20:17:52.195Z,45.65
2023-03-03T20:23:02.387Z,43.25
2023-03-03T20:28:21.418Z,46.33
2023-03-03T20:33:39.507Z,44.00
2023-03-03T20:38:53.021Z,39.40
2023-03-03T20:44:07.014Z,38.60
2023-03-03T20:49:24.906Z,43.55
2023-03-03T20:54:38.192Z,46.28
2023-03-03T20:59:48.003Z,37.45
2023-03-03T21:05:09.694Z,36.17
2023-03-03T21:10:16.452Z,36.88
2023-03-03T21:15:37.143Z,39.28
2023-03-03T21:20:41.291Z,39.63
2023-03-03T21:25:47.484Z,36.50
2023-03-03T21:31:05.158Z,35.88
2023-03-03T21:36:09.597Z,33.10
2023-03-03T21:41:12.716Z,38.40
2023-03-03T21:46:19.283Z,37.53
2023-03-03T21:51:24.323Z,38.88
2023-03-03T21:56:27.157Z,38.88
2023-03-03T22:01:29.949Z,37.80
2023-03-03T22:06:34.304Z,36.17
2023-03-03T22:11:38.218Z,36.75
2023-03-03T22:16:41.415Z,30.42
2023-03-03T22:21:46.634Z,33.58
2023-03-03T22:26:49.373Z,27.08
2023-03-03T22:31:52.350Z,22.23
2023-03-03T22:36:56.726Z,18.13
2023-03-03T22:41:59.497Z,21.60
2023-03-03T22:47:02.265Z,20.27
2023-03-03T22:52:06.454Z,17.25
2023-03-03T22:57:09.191Z,22.27
2023-03-03T23:02:11.914Z,20.45
2023-03-03T23:07:16.005Z,16.73
2023-03-03T23:12:18.734Z,17.50
2023-03-03T23:17:21.432Z,24.45
2023-03-03T23:22:25.564Z,20.05
2023-03-03T23:27:28.310Z,16.08
2023-03-03T23:32:31.151Z,21.10
2023-03-03T23:37:35.270Z,18.23
2023-03-03T23:42:37.997Z,15.70
2023-03-03T23:47:40.951Z,21.63
2023-03-03T23:52:45.070Z,23.67
2023-03-03T23:57:47.818Z,20.73
